sensor_id;sensor_type;location;lat;lon;timestamp;pressure;altitude;pressure_sealevel;temperature;humidity
3524;BME280;1776;53.330;11.498;2023-04-01T00:01:57;22904.03;;;-147.39;79.93
3524;BME280;1776;53.330;11.498;2023-04-01T00:04:23;22916.22;;;-147.39;79.85
3524;BME280;1776;53.330;11.498;2023-04-01T00:06:48;22914.19;;;-147.39;79.89
3524;BME280;1776;53.330;11.498;2023-04-01T00:09:13;22916.22;;;-147.39;80.03
3524;BME280;1776;53.330;11.498;2023-04-01T00:11:39;22922.31;;;-147.39;79.94
3524;BME280;1776;53.330;11.498;2023-04-01T00:14:05;22904.03;;;-147.39;79.97
3524;BME280;1776;53.330;11.498;2023-04-01T00:16:31;22918.25;;;-147.39;79.78
3524;BME280;1776;53.330;11.498;2023-04-01T00:18:56;22914.19;;;-147.39;79.75
3524;BME280;1776;53.330;11.498;2023-04-01T00:21:22;22914.19;;;-147.39;79.70
3524;BME280;1776;53.330;11.498;2023-04-01T00:23:51;22912.16;;;-147.39;79.81
3524;BME280;1776;53.330;11.498;2023-04-01T00:26:16;22962.97;;;-147.39;79.94
3524;BME280;1776;53.330;11.498;2023-04-01T00:28:44;22873.53;;;-147.39;79.62
3524;BME280;1776;53.330;11.498;2023-04-01T00:31:10;22928.41;;;-147.39;79.88
3524;BME280;1776;53.330;11.498;2023-04-01T00:33:36;22897.94;;;-147.39;79.72
3524;BME280;1776;53.330;11.498;2023-04-01T00:36:11;22895.91;;;-147.39;79.87
3524;BME280;1776;53.330;11.498;2023-04-01T00:38:38;22920.28;;;-147.39;79.93
3524;BME280;1776;53.330;11.498;2023-04-01T00:41:05;22920.28;;;-147.39;79.51
3524;BME280;1776;53.330;11.498;2023-04-01T00:43:30;22899.97;;;-147.39;79.80
3524;BME280;1776;53.330;11.498;2023-04-01T00:45:56;22910.13;;;-147.39;79.73
3524;BME280;1776;53.330;11.498;2023-04-01T00:48:28;22912.16;;;-147.39;79.36
3524;BME280;1776;53.330;11.498;2023-04-01T00:51:07;22906.06;;;-147.39;79.79
3524;BME280;1776;53.330;11.498;2023-04-01T00:53:37;22912.16;;;-147.39;79.54
3524;BME280;1776;53.330;11.498;2023-04-01T00:56:07;22950.78;;;-147.39;79.47
3524;BME280;1776;53.330;11.498;2023-04-01T00:58:38;22940.63;;;-147.39;79.49
3524;BME280;1776;53.330;11.498;2023-04-01T01:01:05;22910.13;;;-147.39;79.41
3524;BME280;1776;53.330;11.498;2023-04-01T01:03:31;22983.31;;;-147.39;79.83
3524;BME280;1776;53.330;11.498;2023-04-01T01:06:14;22930.44;;;-147.39;79.61
3524;BME280;1776;53.330;11.498;2023-04-01T01:11:41;22910.13;;;-147.39;79.78
3524;BME280;1776;53.330;11.498;2023-04-01T01:14:19;22885.72;;;-147.39;79.97
3524;BME280;1776;53.330;11.498;2023-04-01T01:16:54;22897.94;;;-147.39;80.15
3524;BME280;1776;53.330;11.498;2023-04-01T01:19:42;22891.84;;;-147.39;79.86
3524;BME280;1776;53.330;11.498;2023-04-01T01:22:49;22910.13;;;-147.39;79.90
3524;BME280;1776;53.330;11.498;2023-04-01T01:25:32;22910.13;;;-147.39;79.74
3524;BME280;1776;53.330;11.498;2023-04-01T01:28:20;22908.09;;;-147.39;79.85
3524;BME280;1776;53.330;11.498;2023-04-01T01:30:52;22889.81;;;-147.39;80.03
3524;BME280;1776;53.330;11.498;2023-04-01T01:33:57;22904.03;;;-147.39;79.93
3524;BME280;1776;53.330;11.498;2023-04-01T01:36:29;22895.91;;;-147.39;80.31
3524;BME280;1776;53.330;11.498;2023-04-01T01:38:56;22887.75;;;-147.39;80.49
3524;BME280;1776;53.330;11.498;2023-04-01T01:41:23;22883.69;;;-147.39;80.25
3524;BME280;1776;53.330;11.498;2023-04-01T01:43:53;22875.56;;;-147.39;80.00
3524;BME280;1776;53.330;11.498;2023-04-01T01:46:22;22908.09;;;-147.39;79.93
3524;BME280;1776;53.330;11.498;2023-04-01T01:48:49;22889.81;;;-147.39;80.27
3524;BME280;1776;53.330;11.498;2023-04-01T01:51:17;22930.44;;;-147.39;80.16
3524;BME280;1776;53.330;11.498;2023-04-01T01:53:43;22861.34;;;-147.39;80.36
3524;BME280;1776;53.330;11.498;2023-04-01T01:56:10;22902.00;;;-147.39;80.33
3524;BME280;1776;53.330;11.498;2023-04-01T01:59:04;22908.09;;;-147.39;80.18
3524;BME280;1776;53.330;11.498;2023-04-01T02:01:35;22873.53;;;-147.39;80.31
3524;BME280;1776;53.330;11.498;2023-04-01T02:04:03;22897.94;;;-147.39;80.62
3524;BME280;1776;53.330;11.498;2023-04-01T02:06:32;22851.19;;;-147.39;80.65
3524;BME280;1776;53.330;11.498;2023-04-01T02:09:04;22853.22;;;-147.39;80.50
3524;BME280;1776;53.330;11.498;2023-04-01T02:11:35;22879.63;;;-147.39;80.55
3524;BME280;1776;53.330;11.498;2023-04-01T02:14:10;22893.88;;;-147.39;80.51
3524;BME280;1776;53.330;11.498;2023-04-01T02:16:56;22895.91;;;-147.39;80.53
3524;BME280;1776;53.330;11.498;2023-04-01T02:19:27;22863.38;;;-147.39;80.69
3524;BME280;1776;53.330;11.498;2023-04-01T02:21:59;22843.06;;;-147.39;80.77
3524;BME280;1776;53.330;11.498;2023-04-01T02:24:28;22944.69;;;-147.39;80.90
3524;BME280;1776;53.330;11.498;2023-04-01T02:26:55;22861.34;;;-147.39;80.82
3524;BME280;1776;53.330;11.498;2023-04-01T02:29:22;22853.22;;;-147.39;80.90
3524;BME280;1776;53.330;11.498;2023-04-01T02:31:49;22845.09;;;-147.39;80.93
3524;BME280;1776;53.330;11.498;2023-04-01T02:34:15;22853.22;;;-147.39;80.94
3524;BME280;1776;53.330;11.498;2023-04-01T02:36:41;22891.84;;;-147.39;80.77
3524;BME280;1776;53.330;11.498;2023-04-01T02:39:07;22855.25;;;-147.39;80.75
3524;BME280;1776;53.330;11.498;2023-04-01T02:41:38;22847.13;;;-147.39;80.66
3524;BME280;1776;53.330;11.498;2023-04-01T02:44:04;22875.56;;;-147.39;80.60
3524;BME280;1776;53.330;11.498;2023-04-01T02:46:29;22879.63;;;-147.39;80.71
3524;BME280;1776;53.330;11.498;2023-04-01T02:48:55;22889.81;;;-147.39;80.61
3524;BME280;1776;53.330;11.498;2023-04-01T02:51:20;22893.88;;;-147.39;80.51
3524;BME280;1776;53.330;11.498;2023-04-01T02:53:45;22887.75;;;-147.39;80.24
3524;BME280;1776;53.330;11.498;2023-04-01T02:56:10;22881.66;;;-147.39;80.60
3524;BME280;1776;53.330;11.498;2023-04-01T02:58:36;22893.88;;;-147.39;80.43
3524;BME280;1776;53.330;11.498;2023-04-01T03:01:01;22859.31;;;-147.39;80.33
3524;BME280;1776;53.330;11.498;2023-04-01T03:03:26;22861.34;;;-147.39;80.59
3524;BME280;1776;53.330;11.498;2023-04-01T03:05:51;22853.22;;;-147.39;80.43
3524;BME280;1776;53.330;11.498;2023-04-01T03:08:20;22873.53;;;-147.39;80.31
3524;BME280;1776;53.330;11.498;2023-04-01T03:10:45;22885.72;;;-147.39;80.41
3524;BME280;1776;53.330;11.498;2023-04-01T03:13:10;22859.31;;;-147.39;80.20
3524;BME280;1776;53.330;11.498;2023-04-01T03:15:36;22902.00;;;-147.39;80.59
3524;BME280;1776;53.330;11.498;2023-04-01T03:18:01;22843.06;;;-147.39;80.59
3524;BME280;1776;53.330;11.498;2023-04-01T03:20:28;22836.94;;;-147.39;80.75
3524;BME280;1776;53.330;11.498;2023-04-01T03:22:53;22879.63;;;-147.39;80.72
3524;BME280;1776;53.330;11.498;2023-04-01T03:25:18;22863.38;;;-147.39;80.82
3524;BME280;1776;53.330;11.498;2023-04-01T03:27:43;22845.09;;;-147.39;81.08
3524;BME280;1776;53.330;11.498;2023-04-01T03:30:09;22889.81;;;-147.39;80.84
3524;BME280;1776;53.330;11.498;2023-04-01T03:32:35;22841.00;;;-147.39;80.95
3524;BME280;1776;53.330;11.498;2023-04-01T03:35:00;22836.94;;;-147.39;80.90
3524;BME280;1776;53.330;11.498;2023-04-01T03:37:25;22853.22;;;-147.39;81.09
3524;BME280;1776;53.330;11.498;2023-04-01T03:39:51;22830.84;;;-147.39;81.27
3524;BME280;1776;53.330;11.498;2023-04-01T03:42:16;22812.56;;;-147.39;81.52
3524;BME280;1776;53.330;11.498;2023-04-01T03:44:42;22818.66;;;-147.39;82.08
3524;BME280;1776;53.330;11.498;2023-04-01T03:47:08;22820.69;;;-147.39;81.45
3524;BME280;1776;53.330;11.498;2023-04-01T03:49:34;22843.06;;;-147.39;81.62
3524;BME280;1776;53.330;11.498;2023-04-01T03:51:59;22810.53;;;-147.39;81.56
3524;BME280;1776;53.330;11.498;2023-04-01T03:54:25;22784.09;;;-147.39;81.81
3524;BME280;1776;53.330;11.498;2023-04-01T03:56:50;22493.47;;;-147.39;81.71
3524;BME280;1776;53.330;11.498;2023-04-01T03:59:15;22830.84;;;-147.39;81.93
3524;BME280;1776;53.330;11.498;2023-04-01T04:01:41;22778.00;;;-147.39;81.91
3524;BME280;1776;53.330;11.498;2023-04-01T04:04:06;22838.97;;;-147.39;81.92
3524;BME280;1776;53.330;11.498;2023-04-01T04:06:32;22798.34;;;-147.39;81.89
3524;BME280;1776;53.330;11.498;2023-04-01T04:08:58;22761.75;;;-147.39;81.93
3524;BME280;1776;53.330;11.498;2023-04-01T04:11:23;22814.59;;;-147.39;81.94
3524;BME280;1776;53.330;11.498;2023-04-01T04:13:49;22818.66;;;-147.39;82.00
3524;BME280;1776;53.330;11.498;2023-04-01T04:16:15;22804.44;;;-147.39;82.04
3524;BME280;1776;53.330;11.498;2023-04-01T04:18:41;22851.19;;;-147.39;81.99
3524;BME280;1776;53.330;11.498;2023-04-01T04:21:10;22810.53;;;-147.39;81.62
3524;BME280;1776;53.330;11.498;2023-04-01T04:23:36;22786.13;;;-147.39;81.91
3524;BME280;1776;53.330;11.498;2023-04-01T04:26:11;22761.75;;;-147.39;81.77
3524;BME280;1776;53.330;11.498;2023-04-01T04:28:36;22790.19;;;-147.39;81.83
3524;BME280;1776;53.330;11.498;2023-04-01T04:31:02;22790.19;;;-147.39;81.59
3524;BME280;1776;53.330;11.498;2023-04-01T04:33:29;22826.78;;;-147.39;80.87
3524;BME280;1776;53.330;11.498;2023-04-01T04:35:56;22822.72;;;-147.39;80.89
3524;BME280;1776;53.330;11.498;2023-04-01T04:38:22;22794.25;;;-147.39;80.68
3524;BME280;1776;53.330;11.498;2023-04-01T04:40:47;22828.81;;;-147.39;80.91
3524;BME280;1776;53.330;11.498;2023-04-01T04:43:15;22798.34;;;-147.39;80.89
3524;BME280;1776;53.330;11.498;2023-04-01T04:45:41;22788.16;;;-147.39;80.44
3524;BME280;1776;53.330;11.498;2023-04-01T04:48:11;22796.31;;;-147.39;80.56
3524;BME280;1776;53.330;11.498;2023-04-01T04:50:41;22788.16;;;-147.39;80.08
3524;BME280;1776;53.330;11.498;2023-04-01T04:53:06;22841.00;;;-147.39;80.25
3524;BME280;1776;53.330;11.498;2023-04-01T04:55:31;22838.97;;;-147.39;79.73
3524;BME280;1776;53.330;11.498;2023-04-01T04:57:57;22810.53;;;-147.39;79.74
3524;BME280;1776;53.330;11.498;2023-04-01T05:00:22;22771.91;;;-147.39;80.04
3524;BME280;1776;53.330;11.498;2023-04-01T05:02:47;22788.16;;;-147.39;79.95
3524;BME280;1776;53.330;11.498;2023-04-01T05:05:12;22782.06;;;-147.39;80.29
3524;BME280;1776;53.330;11.498;2023-04-01T05:07:38;22792.22;;;-147.39;80.38
3524;BME280;1776;53.330;11.498;2023-04-01T05:10:03;22865.41;;;-147.39;79.95
3524;BME280;1776;53.330;11.498;2023-04-01T05:12:29;22782.06;;;-147.39;80.01
3524;BME280;1776;53.330;11.498;2023-04-01T05:14:54;22873.53;;;-147.39;79.92
3524;BME280;1776;53.330;11.498;2023-04-01T05:17:20;22830.84;;;-147.39;79.54
3524;BME280;1776;53.330;11.498;2023-04-01T05:19:45;22855.25;;;-147.39;79.83
3524;BME280;1776;53.330;11.498;2023-04-01T05:22:10;22843.06;;;-147.39;79.70
3524;BME280;1776;53.330;11.498;2023-04-01T05:24:36;22796.31;;;-147.39;80.73
3524;BME280;1776;53.330;11.498;2023-04-01T05:27:01;22841.00;;;-147.39;79.46
3524;BME280;1776;53.330;11.498;2023-04-01T05:29:26;22660.13;;;-147.39;78.25
3524;BME280;1776;53.330;11.498;2023-04-01T05:31:52;22873.53;;;-147.39;78.20
3524;BME280;1776;53.330;11.498;2023-04-01T05:34:17;22875.56;;;-147.39;78.29
3524;BME280;1776;53.330;11.498;2023-04-01T05:36:43;22873.53;;;-147.39;78.23
3524;BME280;1776;53.330;11.498;2023-04-01T05:39:09;22871.50;;;-147.39;78.40
3524;BME280;1776;53.330;11.498;2023-04-01T05:41:35;22834.91;;;-147.39;78.63
3524;BME280;1776;53.330;11.498;2023-04-01T05:44:00;22853.22;;;-147.39;78.68
3524;BME280;1776;53.330;11.498;2023-04-01T05:46:26;22875.56;;;-147.39;78.46
3524;BME280;1776;53.330;11.498;2023-04-01T05:48:51;22853.22;;;-147.39;78.59
3524;BME280;1776;53.330;11.498;2023-04-01T05:51:16;22859.31;;;-147.39;78.56
3524;BME280;1776;53.330;11.498;2023-04-01T05:53:42;22869.47;;;-147.39;78.62
3524;BME280;1776;53.330;11.498;2023-04-01T05:56:07;22812.56;;;-147.39;78.87
3524;BME280;1776;53.330;11.498;2023-04-01T05:58:35;22849.16;;;-147.39;78.69
3524;BME280;1776;53.330;11.498;2023-04-01T06:01:05;22826.78;;;-147.39;78.70
3524;BME280;1776;53.330;11.498;2023-04-01T06:03:31;22863.38;;;-147.39;78.87
3524;BME280;1776;53.330;11.498;2023-04-01T06:05:57;22867.44;;;-147.39;78.65
3524;BME280;1776;53.330;11.498;2023-04-01T06:08:23;22816.63;;;-147.39;79.05
3524;BME280;1776;53.330;11.498;2023-04-01T06:11:01;22820.69;;;-147.39;78.98
3524;BME280;1776;53.330;11.498;2023-04-01T06:19:11;22849.16;;;-147.39;78.88
3524;BME280;1776;53.330;11.498;2023-04-01T06:27:59;22820.69;;;-147.39;79.13
3524;BME280;1776;53.330;11.498;2023-04-01T06:30:34;22816.63;;;-147.39;79.04
3524;BME280;1776;53.330;11.498;2023-04-01T06:36:00;22847.13;;;-147.39;78.18
3524;BME280;1776;53.330;11.498;2023-04-01T06:43:53;22830.84;;;-147.39;78.37
3524;BME280;1776;53.330;11.498;2023-04-01T06:46:44;22812.56;;;-147.39;78.72
3524;BME280;1776;53.330;11.498;2023-04-01T06:49:24;22820.69;;;-147.39;78.43
3524;BME280;1776;53.330;11.498;2023-04-01T06:54:42;22810.53;;;-147.39;78.19
3524;BME280;1776;53.330;11.498;2023-04-01T06:59:43;22690.59;;;-147.39;78.62
3524;BME280;1776;53.330;11.498;2023-04-01T07:04:37;22899.97;;;-147.39;78.56
3524;BME280;1776;53.330;11.498;2023-04-01T07:07:14;22855.25;;;-147.39;78.22
3524;BME280;1776;53.330;11.498;2023-04-01T07:09:43;22814.59;;;-147.39;78.93
3524;BME280;1776;53.330;11.498;2023-04-01T07:15:17;22830.84;;;-147.39;78.74
3524;BME280;1776;53.330;11.498;2023-04-01T07:17:45;22800.38;;;-147.39;78.95
3524;BME280;1776;53.330;11.498;2023-04-01T07:20:28;22804.44;;;-147.39;78.86
3524;BME280;1776;53.330;11.498;2023-04-01T07:22:58;22836.94;;;-147.39;79.26
3524;BME280;1776;53.330;11.498;2023-04-01T07:25:29;22788.16;;;-147.39;79.18
3524;BME280;1776;53.330;11.498;2023-04-01T07:28:06;22816.63;;;-147.39;79.62
3524;BME280;1776;53.330;11.498;2023-04-01T07:31:07;22871.50;;;-147.39;79.79
3524;BME280;1776;53.330;11.498;2023-04-01T07:33:41;22814.59;;;-147.39;79.62
3524;BME280;1776;53.330;11.498;2023-04-01T07:36:43;22810.53;;;-147.39;79.62
3524;BME280;1776;53.330;11.498;2023-04-01T07:39:43;22800.38;;;-147.39;79.51
3524;BME280;1776;53.330;11.498;2023-04-01T07:42:38;22796.31;;;-147.39;79.44
3524;BME280;1776;53.330;11.498;2023-04-01T07:46:11;22816.63;;;-147.39;79.51
3524;BME280;1776;53.330;11.498;2023-04-01T07:48:14;22802.41;;;-147.39;79.24
3524;BME280;1776;53.330;11.498;2023-04-01T07:56:10;22796.31;;;-147.39;79.28
3524;BME280;1776;53.330;11.498;2023-04-01T07:58:55;22818.66;;;-147.39;79.45
3524;BME280;1776;53.330;11.498;2023-04-01T08:01:36;22810.53;;;-147.39;79.26
3524;BME280;1776;53.330;11.498;2023-04-01T08:04:25;22824.75;;;-147.39;79.62
3524;BME280;1776;53.330;11.498;2023-04-01T08:07:03;22810.53;;;-147.39;79.69
3524;BME280;1776;53.330;11.498;2023-04-01T08:09:44;22814.59;;;-147.39;79.38
3524;BME280;1776;53.330;11.498;2023-04-01T08:12:17;22800.38;;;-147.39;79.62
3524;BME280;1776;53.330;11.498;2023-04-01T08:14:53;22808.50;;;-147.39;79.36
3524;BME280;1776;53.330;11.498;2023-04-01T08:17:28;22828.81;;;-147.39;79.37
3524;BME280;1776;53.330;11.498;2023-04-01T08:20:10;22822.72;;;-147.39;79.17
3524;BME280;1776;53.330;11.498;2023-04-01T08:22:50;22824.75;;;-147.39;79.10
3524;BME280;1776;53.330;11.498;2023-04-01T08:25:24;22784.09;;;-147.39;79.36
3524;BME280;1776;53.330;11.498;2023-04-01T08:28:15;22808.50;;;-147.39;79.48
3524;BME280;1776;53.330;11.498;2023-04-01T08:31:05;22838.97;;;-147.39;79.35
3524;BME280;1776;53.330;11.498;2023-04-01T08:33:32;22816.63;;;-147.39;78.97
3524;BME280;1776;53.330;11.498;2023-04-01T08:40:59;22782.06;;;-147.39;79.43
3524;BME280;1776;53.330;11.498;2023-04-01T08:43:38;22826.78;;;-147.39;79.66
3524;BME280;1776;53.330;11.498;2023-04-01T08:46:23;22822.72;;;-147.39;79.61
3524;BME280;1776;53.330;11.498;2023-04-01T08:49:05;22810.53;;;-147.39;79.62
3524;BME280;1776;53.330;11.498;2023-04-01T08:59:50;22820.69;;;-147.39;79.49
3524;BME280;1776;53.330;11.498;2023-04-01T09:19:41;22780.03;;;-147.39;79.61
3524;BME280;1776;53.330;11.498;2023-04-01T09:22:24;22814.59;;;-147.39;79.25
3524;BME280;1776;53.330;11.498;2023-04-01T09:28:10;22708.91;;;-147.39;79.34
3524;BME280;1776;53.330;11.498;2023-04-01T09:31:06;22786.13;;;-147.39;79.38
3524;BME280;1776;53.330;11.498;2023-04-01T09:36:46;22826.78;;;-147.39;79.88
3524;BME280;1776;53.330;11.498;2023-04-01T09:39:16;22800.38;;;-147.39;79.70
3524;BME280;1776;53.330;11.498;2023-04-01T09:42:11;22849.16;;;-147.39;79.15
3524;BME280;1776;53.330;11.498;2023-04-01T09:45:14;22865.41;;;-147.39;79.37
3524;BME280;1776;53.330;11.498;2023-04-01T09:50:46;22859.31;;;-147.39;79.26
3524;BME280;1776;53.330;11.498;2023-04-01T09:53:28;22816.63;;;-147.39;79.08
3524;BME280;1776;53.330;11.498;2023-04-01T09:57:04;22838.97;;;-147.39;78.87
3524;BME280;1776;53.330;11.498;2023-04-01T09:59:46;22824.75;;;-147.39;79.67
3524;BME280;1776;53.330;11.498;2023-04-01T10:03:02;22851.19;;;-147.39;78.04
3524;BME280;1776;53.330;11.498;2023-04-01T10:11:25;22883.69;;;-147.39;78.60
3524;BME280;1776;53.330;11.498;2023-04-01T10:22:43;22875.56;;;-147.39;78.95
3524;BME280;1776;53.330;11.498;2023-04-01T10:25:36;22806.47;;;-147.39;78.82
3524;BME280;1776;53.330;11.498;2023-04-01T10:28:37;22871.50;;;-147.39;79.22
3524;BME280;1776;53.330;11.498;2023-04-01T10:40:23;22853.22;;;-147.39;78.84
3524;BME280;1776;53.330;11.498;2023-04-01T10:45:57;22830.84;;;-147.39;78.72
3524;BME280;1776;53.330;11.498;2023-04-01T10:51:20;22845.09;;;-147.39;78.89
3524;BME280;1776;53.330;11.498;2023-04-01T10:54:09;22853.22;;;-147.39;79.02
3524;BME280;1776;53.330;11.498;2023-04-01T10:59:35;22869.47;;;-147.39;78.76
3524;BME280;1776;53.330;11.498;2023-04-01T11:13:39;22826.78;;;-147.39;78.24
3524;BME280;1776;53.330;11.498;2023-04-01T11:19:27;22838.97;;;-147.39;78.59
3524;BME280;1776;53.330;11.498;2023-04-01T11:28:01;22855.25;;;-147.39;79.22
3524;BME280;1776;53.330;11.498;2023-04-01T11:30:43;22788.16;;;-147.39;78.65
3524;BME280;1776;53.330;11.498;2023-04-01T11:33:28;22865.41;;;-147.39;78.63
3524;BME280;1776;53.330;11.498;2023-04-01T11:38:56;22865.41;;;-147.39;78.35
3524;BME280;1776;53.330;11.498;2023-04-01T11:41:46;22855.25;;;-147.39;78.34
3524;BME280;1776;53.330;11.498;2023-04-01T11:44:25;22863.38;;;-147.39;78.38
3524;BME280;1776;53.330;11.498;2023-04-01T11:47:22;22871.50;;;-147.39;78.04
3524;BME280;1776;53.330;11.498;2023-04-01T11:50:17;22869.47;;;-147.39;78.46
3524;BME280;1776;53.330;11.498;2023-04-01T11:53:06;22828.81;;;-147.39;77.92
3524;BME280;1776;53.330;11.498;2023-04-01T11:58:28;22820.69;;;-147.39;78.21
3524;BME280;1776;53.330;11.498;2023-04-01T12:04:18;22845.09;;;-147.39;78.47
3524;BME280;1776;53.330;11.498;2023-04-01T12:07:05;22818.66;;;-147.39;78.80
3524;BME280;1776;53.330;11.498;2023-04-01T12:14:54;22847.13;;;-147.39;78.30
3524;BME280;1776;53.330;11.498;2023-04-01T12:26:20;22800.38;;;-147.39;78.49
3524;BME280;1776;53.330;11.498;2023-04-01T12:29:02;22824.75;;;-147.39;78.53
3524;BME280;1776;53.330;11.498;2023-04-01T12:37:18;22843.06;;;-147.39;78.50
3524;BME280;1776;53.330;11.498;2023-04-01T12:45:34;22855.25;;;-147.39;77.78
3524;BME280;1776;53.330;11.498;2023-04-01T12:48:33;22847.13;;;-147.39;77.86
3524;BME280;1776;53.330;11.498;2023-04-01T12:51:35;22830.84;;;-147.39;78.26
3524;BME280;1776;53.330;11.498;2023-04-01T13:03:17;22881.66;;;-147.39;77.76
3524;BME280;1776;53.330;11.498;2023-04-01T13:06:11;22861.34;;;-147.39;77.65
3524;BME280;1776;53.330;11.498;2023-04-01T13:14:21;22867.44;;;-147.39;77.59
3524;BME280;1776;53.330;11.498;2023-04-01T13:19:48;22867.44;;;-147.39;77.49
3524;BME280;1776;53.330;11.498;2023-04-01T13:22:28;22895.91;;;-147.39;78.08
3524;BME280;1776;53.330;11.498;2023-04-01T13:25:23;22845.09;;;-147.39;77.82
3524;BME280;1776;53.330;11.498;2023-04-01T13:28:12;22942.66;;;-147.39;78.09
3524;BME280;1776;53.330;11.498;2023-04-01T13:33:27;22920.28;;;-147.39;77.30
3524;BME280;1776;53.330;11.498;2023-04-01T13:41:43;22879.63;;;-147.39;77.57
3524;BME280;1776;53.330;11.498;2023-04-01T13:44:17;22867.44;;;-147.39;77.59
3524;BME280;1776;53.330;11.498;2023-04-01T13:55:20;22836.94;;;-147.39;78.35
3524;BME280;1776;53.330;11.498;2023-04-01T14:04:03;22851.19;;;-147.39;77.61
3524;BME280;1776;53.330;11.498;2023-04-01T14:06:38;22873.53;;;-147.39;76.88
3524;BME280;1776;53.330;11.498;2023-04-01T14:09:30;22855.25;;;-147.39;77.23
3524;BME280;1776;53.330;11.498;2023-04-01T14:17:30;22845.09;;;-147.39;77.25
3524;BME280;1776;53.330;11.498;2023-04-01T14:20:13;22891.84;;;-147.39;76.94
3524;BME280;1776;53.330;11.498;2023-04-01T14:22:59;22871.50;;;-147.39;77.39
3524;BME280;1776;53.330;11.498;2023-04-01T14:25:45;22841.00;;;-147.39;77.55
3524;BME280;1776;53.330;11.498;2023-04-01T14:36:53;22857.28;;;-147.39;77.48
3524;BME280;1776;53.330;11.498;2023-04-01T14:42:43;22857.28;;;-147.39;77.15
3524;BME280;1776;53.330;11.498;2023-04-01T14:50:50;22861.34;;;-147.39;77.44
3524;BME280;1776;53.330;11.498;2023-04-01T14:55:51;22873.53;;;-147.39;77.15
3524;BME280;1776;53.330;11.498;2023-04-01T14:58:19;22893.88;;;-147.39;76.63
3524;BME280;1776;53.330;11.498;2023-04-01T15:03:51;22877.59;;;-147.39;76.67
3524;BME280;1776;53.330;11.498;2023-04-01T15:09:38;22926.38;;;-147.39;76.23
3524;BME280;1776;53.330;11.498;2023-04-01T15:12:26;22879.63;;;-147.39;76.28
3524;BME280;1776;53.330;11.498;2023-04-01T15:21:00;22875.56;;;-147.39;76.27
3524;BME280;1776;53.330;11.498;2023-04-01T15:23:37;22906.06;;;-147.39;76.47
3524;BME280;1776;53.330;11.498;2023-04-01T15:31:54;22867.44;;;-147.39;77.13
3524;BME280;1776;53.330;11.498;2023-04-01T15:34:37;22855.25;;;-147.39;76.80
3524;BME280;1776;53.330;11.498;2023-04-01T15:37:18;22875.56;;;-147.39;76.94
3524;BME280;1776;53.330;11.498;2023-04-01T15:45:38;22897.94;;;-147.39;76.67
3524;BME280;1776;53.330;11.498;2023-04-01T15:48:19;22865.41;;;-147.39;76.82
3524;BME280;1776;53.330;11.498;2023-04-01T16:13:30;22922.31;;;-147.39;76.05
3524;BME280;1776;53.330;11.498;2023-04-01T16:24:32;22847.13;;;-147.39;76.08
3524;BME280;1776;53.330;11.498;2023-04-01T16:27:04;22877.59;;;-147.39;76.32
3524;BME280;1776;53.330;11.498;2023-04-01T16:32:21;22855.25;;;-147.39;76.36
3524;BME280;1776;53.330;11.498;2023-04-01T16:35:25;22859.31;;;-147.39;76.50
3524;BME280;1776;53.330;11.498;2023-04-01T16:38:05;22867.44;;;-147.39;76.25
3524;BME280;1776;53.330;11.498;2023-04-01T16:40:37;22863.38;;;-147.39;76.38
3524;BME280;1776;53.330;11.498;2023-04-01T16:45:43;22899.97;;;-147.39;76.33
3524;BME280;1776;53.330;11.498;2023-04-01T16:48:15;22893.88;;;-147.39;76.42
3524;BME280;1776;53.330;11.498;2023-04-01T16:50:58;22865.41;;;-147.39;76.54
3524;BME280;1776;53.330;11.498;2023-04-01T16:53:48;22863.38;;;-147.39;76.91
3524;BME280;1776;53.330;11.498;2023-04-01T16:56:25;22883.69;;;-147.39;76.52
3524;BME280;1776;53.330;11.498;2023-04-01T16:58:59;22863.38;;;-147.39;76.27
3524;BME280;1776;53.330;11.498;2023-04-01T17:01:40;22879.63;;;-147.39;75.82
3524;BME280;1776;53.330;11.498;2023-04-01T17:04:17;22887.75;;;-147.39;76.04
3524;BME280;1776;53.330;11.498;2023-04-01T17:07:10;22865.41;;;-147.39;76.14
3524;BME280;1776;53.330;11.498;2023-04-01T17:09:41;22859.31;;;-147.39;76.50
3524;BME280;1776;53.330;11.498;2023-04-01T17:12:25;22885.72;;;-147.39;76.13
3524;BME280;1776;53.330;11.498;2023-04-01T17:18:02;22895.91;;;-147.39;76.41
3524;BME280;1776;53.330;11.498;2023-04-01T17:20:42;22859.31;;;-147.39;76.69
3524;BME280;1776;53.330;11.498;2023-04-01T17:23:23;22851.19;;;-147.39;76.40
3524;BME280;1776;53.330;11.498;2023-04-01T17:26:12;22912.16;;;-147.39;76.21
3524;BME280;1776;53.330;11.498;2023-04-01T17:29:11;22889.81;;;-147.39;76.57
3524;BME280;1776;53.330;11.498;2023-04-01T17:31:48;22879.63;;;-147.39;76.10
3524;BME280;1776;53.330;11.498;2023-04-01T17:34:37;22845.09;;;-147.39;76.06
3524;BME280;1776;53.330;11.498;2023-04-01T17:37:25;22881.66;;;-147.39;75.86
3524;BME280;1776;53.330;11.498;2023-04-01T17:47:52;22867.44;;;-147.39;75.73
3524;BME280;1776;53.330;11.498;2023-04-01T17:50:47;22969.06;;;-147.39;75.53
3524;BME280;1776;53.330;11.498;2023-04-01T17:53:33;22910.13;;;-147.39;75.24
3524;BME280;1776;53.330;11.498;2023-04-01T17:56:14;22895.91;;;-147.39;75.18
3524;BME280;1776;53.330;11.498;2023-04-01T17:58:46;22893.88;;;-147.39;75.31
3524;BME280;1776;53.330;11.498;2023-04-01T18:01:36;22865.41;;;-147.39;75.12
3524;BME280;1776;53.330;11.498;2023-04-01T18:18:37;22902.00;;;-147.39;75.31
3524;BME280;1776;53.330;11.498;2023-04-01T18:23:49;22930.44;;;-147.39;74.81
3524;BME280;1776;53.330;11.498;2023-04-01T18:26:22;22885.72;;;-147.39;74.31
3524;BME280;1776;53.330;11.498;2023-04-01T18:31:24;22967.03;;;-147.39;73.61
3524;BME280;1776;53.330;11.498;2023-04-01T18:34:06;22985.34;;;-147.39;73.42
3524;BME280;1776;53.330;11.498;2023-04-01T18:45:10;22938.59;;;-147.39;73.25
3524;BME280;1776;53.330;11.498;2023-04-01T18:48:00;22956.88;;;-147.39;72.92
3524;BME280;1776;53.330;11.498;2023-04-01T18:50:42;22952.81;;;-147.39;73.12
3524;BME280;1776;53.330;11.498;2023-04-01T18:53:22;22914.19;;;-147.39;73.15
3524;BME280;1776;53.330;11.498;2023-04-01T18:55:52;22926.38;;;-147.39;73.39
3524;BME280;1776;53.330;11.498;2023-04-01T18:58:32;22938.59;;;-147.39;73.23
3524;BME280;1776;53.330;11.498;2023-04-01T19:01:07;22934.53;;;-147.39;73.44